sensor_id;sensor_type;location;lat;lon;timestamp;temperature;humidity
75782;DHT22;64400;44.762;37.698;2022-10-31T00:01:33;14.13;104.63
75782;DHT22;64400;44.762;37.698;2022-10-31T00:04:02;14.18;104.06
75782;DHT22;64400;44.762;37.698;2022-10-31T00:06:30;14.18;104.18
75782;DHT22;64400;44.762;37.698;2022-10-31T00:09:03;14.20;103.95
75782;DHT22;64400;44.762;37.698;2022-10-31T00:11:31;14.22;103.79
75782;DHT22;64400;44.762;37.698;2022-10-31T00:13:59;14.21;103.98
75782;DHT22;64400;44.762;37.698;2022-10-31T00:16:28;14.21;103.95
75782;DHT22;64400;44.762;37.698;2022-10-31T00:18:58;14.18;103.71
75782;DHT22;64400;44.762;37.698;2022-10-31T00:21:27;14.21;103.65
75782;DHT22;64400;44.762;37.698;2022-10-31T00:23:57;14.17;104.15
75782;DHT22;64400;44.762;37.698;2022-10-31T00:26:27;14.18;103.95
75782;DHT22;64400;44.762;37.698;2022-10-31T00:28:55;14.19;103.83
75782;DHT22;64400;44.762;37.698;2022-10-31T00:31:23;14.22;103.39
75782;DHT22;64400;44.762;37.698;2022-10-31T00:33:51;14.22;103.70
75782;DHT22;64400;44.762;37.698;2022-10-31T00:36:19;14.19;104.14
75782;DHT22;64400;44.762;37.698;2022-10-31T00:38:48;14.10;104.18
75782;DHT22;64400;44.762;37.698;2022-10-31T00:41:17;14.07;104.81
75782;DHT22;64400;44.762;37.698;2022-10-31T00:43:45;14.05;104.98
75782;DHT22;64400;44.762;37.698;2022-10-31T00:46:13;14.05;104.69
75782;DHT22;64400;44.762;37.698;2022-10-31T00:48:41;14.10;104.11
75782;DHT22;64400;44.762;37.698;2022-10-31T00:51:10;14.12;103.51
75782;DHT22;64400;44.762;37.698;2022-10-31T00:53:39;14.12;104.35
75782;DHT22;64400;44.762;37.698;2022-10-31T00:56:07;14.17;103.61
75782;DHT22;64400;44.762;37.698;2022-10-31T00:58:35;14.19;102.47
75782;DHT22;64400;44.762;37.698;2022-10-31T01:01:03;14.20;102.96
75782;DHT22;64400;44.762;37.698;2022-10-31T01:03:32;14.18;102.76
75782;DHT22;64400;44.762;37.698;2022-10-31T01:06:08;14.14;103.82
75782;DHT22;64400;44.762;37.698;2022-10-31T01:08:37;14.14;103.58
75782;DHT22;64400;44.762;37.698;2022-10-31T01:11:12;14.15;103.88
75782;DHT22;64400;44.762;37.698;2022-10-31T01:13:41;14.07;104.36
75782;DHT22;64400;44.762;37.698;2022-10-31T01:16:12;14.07;104.57
75782;DHT22;64400;44.762;37.698;2022-10-31T01:18:40;13.86;105.66
75782;DHT22;64400;44.762;37.698;2022-10-31T01:21:11;13.75;106.48
75782;DHT22;64400;44.762;37.698;2022-10-31T01:23:58;13.74;106.96
75782;DHT22;64400;44.762;37.698;2022-10-31T01:26:29;13.77;106.90
75782;DHT22;64400;44.762;37.698;2022-10-31T01:29:04;13.82;106.58
75782;DHT22;64400;44.762;37.698;2022-10-31T01:31:53;13.89;105.90
75782;DHT22;64400;44.762;37.698;2022-10-31T01:34:21;13.95;105.43
75782;DHT22;64400;44.762;37.698;2022-10-31T01:36:48;13.93;105.50
75782;DHT22;64400;44.762;37.698;2022-10-31T01:39:19;13.96;105.25
75782;DHT22;64400;44.762;37.698;2022-10-31T01:41:49;13.99;105.12
75782;DHT22;64400;44.762;37.698;2022-10-31T01:49:50;14.06;104.66
75782;DHT22;64400;44.762;37.698;2022-10-31T01:52:23;14.03;105.33
75782;DHT22;64400;44.762;37.698;2022-10-31T01:55:18;13.90;106.09
75782;DHT22;64400;44.762;37.698;2022-10-31T01:57:47;13.82;106.64
75782;DHT22;64400;44.762;37.698;2022-10-31T02:00:17;13.82;106.60
75782;DHT22;64400;44.762;37.698;2022-10-31T02:02:46;13.89;106.02
75782;DHT22;64400;44.762;37.698;2022-10-31T02:05:21;13.97;105.46
75782;DHT22;64400;44.762;37.698;2022-10-31T02:10:36;13.97;105.43
75782;DHT22;64400;44.762;37.698;2022-10-31T02:13:08;13.98;105.10
75782;DHT22;64400;44.762;37.698;2022-10-31T02:16:02;14.03;104.59
75782;DHT22;64400;44.762;37.698;2022-10-31T02:18:30;14.04;104.16
75782;DHT22;64400;44.762;37.698;2022-10-31T02:21:13;14.08;103.93
75782;DHT22;64400;44.762;37.698;2022-10-31T02:26:38;14.03;103.74
75782;DHT22;64400;44.762;37.698;2022-10-31T02:32:43;14.06;104.47
75782;DHT22;64400;44.762;37.698;2022-10-31T02:41:46;14.06;104.37
75782;DHT22;64400;44.762;37.698;2022-10-31T02:53:02;14.04;104.21
75782;DHT22;64400;44.762;37.698;2022-10-31T02:58:05;13.98;104.32
75782;DHT22;64400;44.762;37.698;2022-10-31T03:01:05;13.95;104.35
75782;DHT22;64400;44.762;37.698;2022-10-31T03:07:11;13.92;104.50
75782;DHT22;64400;44.762;37.698;2022-10-31T03:10:13;13.88;104.64
75782;DHT22;64400;44.762;37.698;2022-10-31T03:13:10;13.79;105.05
75782;DHT22;64400;44.762;37.698;2022-10-31T03:15:41;13.68;105.56
75782;DHT22;64400;44.762;37.698;2022-10-31T03:18:36;13.58;106.40
75782;DHT22;64400;44.762;37.698;2022-10-31T03:21:09;13.52;106.48
75782;DHT22;64400;44.762;37.698;2022-10-31T03:23:42;13.47;106.92
75782;DHT22;64400;44.762;37.698;2022-10-31T03:26:19;13.34;107.20
75782;DHT22;64400;44.762;37.698;2022-10-31T03:29:03;13.25;107.59
75782;DHT22;64400;44.762;37.698;2022-10-31T03:31:37;13.22;107.60
75782;DHT22;64400;44.762;37.698;2022-10-31T03:34:07;13.24;106.69
75782;DHT22;64400;44.762;37.698;2022-10-31T03:36:38;13.31;105.43
75782;DHT22;64400;44.762;37.698;2022-10-31T03:39:09;13.34;104.18
75782;DHT22;64400;44.762;37.698;2022-10-31T03:41:42;13.39;103.53
75782;DHT22;64400;44.762;37.698;2022-10-31T03:44:19;13.37;103.57
75782;DHT22;64400;44.762;37.698;2022-10-31T03:47:07;13.41;103.70
75782;DHT22;64400;44.762;37.698;2022-10-31T03:49:35;13.45;102.60
75782;DHT22;64400;44.762;37.698;2022-10-31T03:52:27;13.44;102.33
75782;DHT22;64400;44.762;37.698;2022-10-31T03:54:59;13.41;102.56
75782;DHT22;64400;44.762;37.698;2022-10-31T03:57:39;13.43;102.27
75782;DHT22;64400;44.762;37.698;2022-10-31T04:00:11;13.44;102.08
75782;DHT22;64400;44.762;37.698;2022-10-31T04:03:10;13.41;101.70
75782;DHT22;64400;44.762;37.698;2022-10-31T04:05:44;13.39;101.31
75782;DHT22;64400;44.762;37.698;2022-10-31T04:08:16;13.34;101.44
75782;DHT22;64400;44.762;37.698;2022-10-31T04:10:47;13.22;101.93
75782;DHT22;64400;44.762;37.698;2022-10-31T04:13:24;12.94;102.93
75782;DHT22;64400;44.762;37.698;2022-10-31T04:16:01;12.76;104.71
75782;DHT22;64400;44.762;37.698;2022-10-31T04:18:30;12.72;104.44
75782;DHT22;64400;44.762;37.698;2022-10-31T04:21:03;12.80;103.89
75782;DHT22;64400;44.762;37.698;2022-10-31T04:23:33;12.79;104.29
75782;DHT22;64400;44.762;37.698;2022-10-31T04:26:09;12.81;104.82
75782;DHT22;64400;44.762;37.698;2022-10-31T04:28:38;12.86;103.95
75782;DHT22;64400;44.762;37.698;2022-10-31T04:31:07;12.84;103.92
75782;DHT22;64400;44.762;37.698;2022-10-31T04:33:37;12.87;104.08
75782;DHT22;64400;44.762;37.698;2022-10-31T04:36:05;12.78;104.80
75782;DHT22;64400;44.762;37.698;2022-10-31T04:38:34;12.77;105.03
75782;DHT22;64400;44.762;37.698;2022-10-31T04:41:07;12.78;104.96
75782;DHT22;64400;44.762;37.698;2022-10-31T04:43:58;12.86;104.46
75782;DHT22;64400;44.762;37.698;2022-10-31T04:46:27;12.90;103.94
75782;DHT22;64400;44.762;37.698;2022-10-31T04:48:56;12.95;103.37
75782;DHT22;64400;44.762;37.698;2022-10-31T04:51:24;12.93;103.29
75782;DHT22;64400;44.762;37.698;2022-10-31T04:53:52;12.95;103.02
75782;DHT22;64400;44.762;37.698;2022-10-31T04:56:49;13.00;102.80
75782;DHT22;64400;44.762;37.698;2022-10-31T04:59:21;13.03;103.06
75782;DHT22;64400;44.762;37.698;2022-10-31T05:01:52;13.15;103.47
75782;DHT22;64400;44.762;37.698;2022-10-31T05:04:49;13.54;104.01
75782;DHT22;64400;44.762;37.698;2022-10-31T05:07:17;13.79;101.83
75782;DHT22;64400;44.762;37.698;2022-10-31T05:09:45;13.86;100.50
75782;DHT22;64400;44.762;37.698;2022-10-31T05:15:03;14.28;100.35
75782;DHT22;64400;44.762;37.698;2022-10-31T05:18:09;14.58;100.65
75782;DHT22;64400;44.762;37.698;2022-10-31T05:20:56;14.98;98.81
75782;DHT22;64400;44.762;37.698;2022-10-31T05:23:49;15.34;98.37
75782;DHT22;64400;44.762;37.698;2022-10-31T05:26:17;15.59;98.09
75782;DHT22;64400;44.762;37.698;2022-10-31T05:29:04;15.88;96.41
75782;DHT22;64400;44.762;37.698;2022-10-31T05:31:35;16.11;95.36
75782;DHT22;64400;44.762;37.698;2022-10-31T05:34:05;16.37;94.44
75782;DHT22;64400;44.762;37.698;2022-10-31T05:36:46;16.55;94.03
75782;DHT22;64400;44.762;37.698;2022-10-31T05:39:21;16.84;92.84
75782;DHT22;64400;44.762;37.698;2022-10-31T05:41:57;17.07;92.59
75782;DHT22;64400;44.762;37.698;2022-10-31T05:44:26;17.22;90.92
75782;DHT22;64400;44.762;37.698;2022-10-31T05:47:17;17.39;88.98
75782;DHT22;64400;44.762;37.698;2022-10-31T05:50:04;17.47;87.83
75782;DHT22;64400;44.762;37.698;2022-10-31T05:53:03;17.66;86.72
75782;DHT22;64400;44.762;37.698;2022-10-31T05:55:36;17.65;85.84
75782;DHT22;64400;44.762;37.698;2022-10-31T05:58:10;17.83;86.14
75782;DHT22;64400;44.762;37.698;2022-10-31T06:00:40;17.79;85.06
75782;DHT22;64400;44.762;37.698;2022-10-31T06:03:10;17.67;84.90
75782;DHT22;64400;44.762;37.698;2022-10-31T06:05:55;17.62;85.41
75782;DHT22;64400;44.762;37.698;2022-10-31T06:08:28;17.34;83.45
75782;DHT22;64400;44.762;37.698;2022-10-31T06:11:00;17.23;85.26
75782;DHT22;64400;44.762;37.698;2022-10-31T06:13:54;17.39;85.62
75782;DHT22;64400;44.762;37.698;2022-10-31T06:16:26;17.46;83.64
75782;DHT22;64400;44.762;37.698;2022-10-31T06:18:57;17.64;83.26
75782;DHT22;64400;44.762;37.698;2022-10-31T06:21:25;17.93;83.21
75782;DHT22;64400;44.762;37.698;2022-10-31T06:23:54;18.35;82.74
75782;DHT22;64400;44.762;37.698;2022-10-31T06:26:45;18.46;80.71
75782;DHT22;64400;44.762;37.698;2022-10-31T06:29:13;18.18;79.51
75782;DHT22;64400;44.762;37.698;2022-10-31T06:32:04;17.87;78.17
75782;DHT22;64400;44.762;37.698;2022-10-31T06:34:38;17.63;82.07
75782;DHT22;64400;44.762;37.698;2022-10-31T06:37:11;17.52;82.57
75782;DHT22;64400;44.762;37.698;2022-10-31T06:39:42;17.56;82.88
75782;DHT22;64400;44.762;37.698;2022-10-31T06:42:12;17.61;81.72
75782;DHT22;64400;44.762;37.698;2022-10-31T06:44:43;17.67;81.07
75782;DHT22;64400;44.762;37.698;2022-10-31T06:47:29;17.65;79.38
75782;DHT22;64400;44.762;37.698;2022-10-31T06:50:20;17.92;79.89
75782;DHT22;64400;44.762;37.698;2022-10-31T06:52:56;18.18;78.00
75782;DHT22;64400;44.762;37.698;2022-10-31T06:55:26;18.28;79.56
75782;DHT22;64400;44.762;37.698;2022-10-31T06:58:03;18.59;78.34
75782;DHT22;64400;44.762;37.698;2022-10-31T07:00:31;18.67;77.13
75782;DHT22;64400;44.762;37.698;2022-10-31T07:03:10;18.89;77.36
75782;DHT22;64400;44.762;37.698;2022-10-31T07:05:38;18.56;76.50
75782;DHT22;64400;44.762;37.698;2022-10-31T07:08:08;18.65;77.76
75782;DHT22;64400;44.762;37.698;2022-10-31T07:10:37;18.53;77.43
75782;DHT22;64400;44.762;37.698;2022-10-31T07:13:11;18.50;76.84
75782;DHT22;64400;44.762;37.698;2022-10-31T07:15:40;18.61;76.37
75782;DHT22;64400;44.762;37.698;2022-10-31T07:18:10;18.59;75.93
75782;DHT22;64400;44.762;37.698;2022-10-31T07:20:38;19.01;75.23
75782;DHT22;64400;44.762;37.698;2022-10-31T07:23:26;19.21;74.11
75782;DHT22;64400;44.762;37.698;2022-10-31T07:26:12;19.53;72.99
75782;DHT22;64400;44.762;37.698;2022-10-31T07:28:46;19.61;70.80
75782;DHT22;64400;44.762;37.698;2022-10-31T07:31:19;19.82;69.94
75782;DHT22;64400;44.762;37.698;2022-10-31T07:33:47;19.77;69.45
75782;DHT22;64400;44.762;37.698;2022-10-31T07:36:28;19.73;70.18
75782;DHT22;64400;44.762;37.698;2022-10-31T07:39:01;19.84;70.20
75782;DHT22;64400;44.762;37.698;2022-10-31T07:41:31;19.83;66.56
75782;DHT22;64400;44.762;37.698;2022-10-31T07:43:59;19.63;69.22
75782;DHT22;64400;44.762;37.698;2022-10-31T07:46:46;19.60;69.40
75782;DHT22;64400;44.762;37.698;2022-10-31T07:49:26;19.90;70.98
75782;DHT22;64400;44.762;37.698;2022-10-31T07:52:16;20.28;71.03
75782;DHT22;64400;44.762;37.698;2022-10-31T07:55:26;20.00;70.16
75782;DHT22;64400;44.762;37.698;2022-10-31T07:58:03;19.99;68.91
75782;DHT22;64400;44.762;37.698;2022-10-31T08:00:33;20.02;68.64
75782;DHT22;64400;44.762;37.698;2022-10-31T08:03:03;20.16;69.26
75782;DHT22;64400;44.762;37.698;2022-10-31T08:05:50;20.34;67.30
75782;DHT22;64400;44.762;37.698;2022-10-31T08:08:43;20.16;67.20
75782;DHT22;64400;44.762;37.698;2022-10-31T08:11:11;20.12;67.17
75782;DHT22;64400;44.762;37.698;2022-10-31T08:13:39;19.81;64.08
75782;DHT22;64400;44.762;37.698;2022-10-31T08:16:09;19.86;65.01
75782;DHT22;64400;44.762;37.698;2022-10-31T08:18:44;20.04;65.97
75782;DHT22;64400;44.762;37.698;2022-10-31T08:21:14;20.19;63.78
75782;DHT22;64400;44.762;37.698;2022-10-31T08:23:44;20.28;63.43
75782;DHT22;64400;44.762;37.698;2022-10-31T08:26:13;20.12;62.46
75782;DHT22;64400;44.762;37.698;2022-10-31T08:28:42;20.34;62.95
75782;DHT22;64400;44.762;37.698;2022-10-31T08:31:12;20.35;64.59
75782;DHT22;64400;44.762;37.698;2022-10-31T08:33:39;20.14;63.99
75782;DHT22;64400;44.762;37.698;2022-10-31T08:36:33;19.71;63.58
75782;DHT22;64400;44.762;37.698;2022-10-31T08:39:14;19.79;63.89
75782;DHT22;64400;44.762;37.698;2022-10-31T08:41:43;19.41;63.62
75782;DHT22;64400;44.762;37.698;2022-10-31T08:44:12;19.91;64.46
75782;DHT22;64400;44.762;37.698;2022-10-31T08:46:40;20.21;62.79
75782;DHT22;64400;44.762;37.698;2022-10-31T08:49:08;20.10;63.85
75782;DHT22;64400;44.762;37.698;2022-10-31T08:51:36;20.37;64.24
75782;DHT22;64400;44.762;37.698;2022-10-31T08:54:03;20.57;62.66
75782;DHT22;64400;44.762;37.698;2022-10-31T08:56:54;20.88;62.04
75782;DHT22;64400;44.762;37.698;2022-10-31T08:59:48;20.68;61.79
75782;DHT22;64400;44.762;37.698;2022-10-31T09:02:45;20.47;61.49
75782;DHT22;64400;44.762;37.698;2022-10-31T09:05:13;20.55;61.54
75782;DHT22;64400;44.762;37.698;2022-10-31T09:07:41;20.40;61.60
75782;DHT22;64400;44.762;37.698;2022-10-31T09:10:09;20.36;61.47
75782;DHT22;64400;44.762;37.698;2022-10-31T09:12:38;20.62;60.25
75782;DHT22;64400;44.762;37.698;2022-10-31T09:15:25;21.38;60.88
75782;DHT22;64400;44.762;37.698;2022-10-31T09:18:07;21.48;58.19
75782;DHT22;64400;44.762;37.698;2022-10-31T09:20:49;21.67;58.70
75782;DHT22;64400;44.762;37.698;2022-10-31T09:23:18;21.89;57.58
75782;DHT22;64400;44.762;37.698;2022-10-31T09:25:48;22.16;57.03
75782;DHT22;64400;44.762;37.698;2022-10-31T09:28:37;22.71;56.82
75782;DHT22;64400;44.762;37.698;2022-10-31T09:31:08;22.72;54.59
75782;DHT22;64400;44.762;37.698;2022-10-31T09:33:59;23.14;53.24
75782;DHT22;64400;44.762;37.698;2022-10-31T09:36:37;23.20;53.14
75782;DHT22;64400;44.762;37.698;2022-10-31T09:39:16;22.95;55.47
75782;DHT22;64400;44.762;37.698;2022-10-31T09:45:18;23.14;53.21
75782;DHT22;64400;44.762;37.698;2022-10-31T09:53:34;22.98;52.16
75782;DHT22;64400;44.762;37.698;2022-10-31T09:56:16;22.70;54.08
75782;DHT22;64400;44.762;37.698;2022-10-31T09:58:55;23.17;52.18
75782;DHT22;64400;44.762;37.698;2022-10-31T10:01:45;22.97;50.96
75782;DHT22;64400;44.762;37.698;2022-10-31T10:04:29;23.28;52.75
75782;DHT22;64400;44.762;37.698;2022-10-31T10:07:30;23.56;51.89
75782;DHT22;64400;44.762;37.698;2022-10-31T10:10:41;23.38;52.59
75782;DHT22;64400;44.762;37.698;2022-10-31T10:30:41;24.73;48.02
75782;DHT22;64400;44.762;37.698;2022-10-31T10:33:38;24.64;47.63
75782;DHT22;64400;44.762;37.698;2022-10-31T10:36:16;25.04;47.32
75782;DHT22;64400;44.762;37.698;2022-10-31T10:39:00;25.04;45.06
75782;DHT22;64400;44.762;37.698;2022-10-31T10:41:32;24.95;46.41
75782;DHT22;64400;44.762;37.698;2022-10-31T10:44:01;25.44;46.20
75782;DHT22;64400;44.762;37.698;2022-10-31T10:46:40;24.89;46.43
75782;DHT22;64400;44.762;37.698;2022-10-31T10:50:00;24.34;48.19
75782;DHT22;64400;44.762;37.698;2022-10-31T10:53:00;23.49;49.11
75782;DHT22;64400;44.762;37.698;2022-10-31T10:55:55;22.62;52.09
75782;DHT22;64400;44.762;37.698;2022-10-31T10:58:24;22.20;53.60
75782;DHT22;64400;44.762;37.698;2022-10-31T11:00:53;22.35;53.88
75782;DHT22;64400;44.762;37.698;2022-10-31T11:03:23;22.39;52.75
75782;DHT22;64400;44.762;37.698;2022-10-31T11:05:54;22.29;52.72
75782;DHT22;64400;44.762;37.698;2022-10-31T11:08:31;22.77;52.15
75782;DHT22;64400;44.762;37.698;2022-10-31T11:13:46;22.93;52.74
75782;DHT22;64400;44.762;37.698;2022-10-31T11:16:37;23.60;51.76
75782;DHT22;64400;44.762;37.698;2022-10-31T11:21:45;24.34;49.85
75782;DHT22;64400;44.762;37.698;2022-10-31T11:24:18;24.59;50.04
75782;DHT22;64400;44.762;37.698;2022-10-31T11:26:50;24.34;49.18
75782;DHT22;64400;44.762;37.698;2022-10-31T11:29:23;23.68;52.01
75782;DHT22;64400;44.762;37.698;2022-10-31T11:31:56;24.32;51.11
75782;DHT22;64400;44.762;37.698;2022-10-31T11:34:36;23.88;49.57
75782;DHT22;64400;44.762;37.698;2022-10-31T11:37:16;23.55;52.76
75782;DHT22;64400;44.762;37.698;2022-10-31T11:39:54;23.39;52.62
75782;DHT22;64400;44.762;37.698;2022-10-31T11:42:26;22.68;54.30
75782;DHT22;64400;44.762;37.698;2022-10-31T11:44:55;22.41;53.33
75782;DHT22;64400;44.762;37.698;2022-10-31T11:47:28;20.83;59.70
75782;DHT22;64400;44.762;37.698;2022-10-31T11:49:57;20.04;61.15
75782;DHT22;64400;44.762;37.698;2022-10-31T11:52:31;19.41;64.33
75782;DHT22;64400;44.762;37.698;2022-10-31T11:55:42;19.15;64.82
75782;DHT22;64400;44.762;37.698;2022-10-31T11:57:56;18.50;68.06
75782;DHT22;64400;44.762;37.698;2022-10-31T12:00:30;18.24;71.10
75782;DHT22;64400;44.762;37.698;2022-10-31T12:05:44;18.10;71.41
75782;DHT22;64400;44.762;37.698;2022-10-31T12:08:13;18.05;71.77
75782;DHT22;64400;44.762;37.698;2022-10-31T12:11:10;17.95;72.43
75782;DHT22;64400;44.762;37.698;2022-10-31T12:13:43;17.89;73.15
75782;DHT22;64400;44.762;37.698;2022-10-31T12:17:11;17.70;72.87
75782;DHT22;64400;44.762;37.698;2022-10-31T12:25:46;17.48;74.45
75782;DHT22;64400;44.762;37.698;2022-10-31T12:28:55;17.23;74.09
75782;DHT22;64400;44.762;37.698;2022-10-31T12:37:42;16.64;74.76
75782;DHT22;64400;44.762;37.698;2022-10-31T12:45:55;16.39;75.41
75782;DHT22;64400;44.762;37.698;2022-10-31T12:54:07;16.36;74.86
75782;DHT22;64400;44.762;37.698;2022-10-31T12:59:35;16.49;75.02
75782;DHT22;64400;44.762;37.698;2022-10-31T13:04:43;16.63;74.49
75782;DHT22;64400;44.762;37.698;2022-10-31T13:07:21;16.67;74.52
75782;DHT22;64400;44.762;37.698;2022-10-31T13:10:46;16.61;73.99
75782;DHT22;64400;44.762;37.698;2022-10-31T13:13:27;16.55;73.88
75782;DHT22;64400;44.762;37.698;2022-10-31T13:16:21;16.48;74.38
75782;DHT22;64400;44.762;37.698;2022-10-31T13:19:01;16.31;74.44
75782;DHT22;64400;44.762;37.698;2022-10-31T13:21:37;16.31;75.16
75782;DHT22;64400;44.762;37.698;2022-10-31T13:24:13;16.30;75.56
75782;DHT22;64400;44.762;37.698;2022-10-31T13:26:52;16.16;75.92
75782;DHT22;64400;44.762;37.698;2022-10-31T13:29:57;16.02;75.71
75782;DHT22;64400;44.762;37.698;2022-10-31T13:32:30;15.77;76.39
75782;DHT22;64400;44.762;37.698;2022-10-31T13:35:20;15.75;76.34
75782;DHT22;64400;44.762;37.698;2022-10-31T13:38:03;15.69;77.17
75782;DHT22;64400;44.762;37.698;2022-10-31T13:44:11;15.66;76.10
75782;DHT22;64400;44.762;37.698;2022-10-31T13:49:02;15.53;76.21
75782;DHT22;64400;44.762;37.698;2022-10-31T13:51:32;15.45;76.13
75782;DHT22;64400;44.762;37.698;2022-10-31T13:54:19;15.37;76.18
75782;DHT22;64400;44.762;37.698;2022-10-31T13:56:51;15.27;75.65
75782;DHT22;64400;44.762;37.698;2022-10-31T13:59:25;15.14;75.96
75782;DHT22;64400;44.762;37.698;2022-10-31T14:01:59;15.11;76.35
75782;DHT22;64400;44.762;37.698;2022-10-31T14:04:36;15.09;76.99
75782;DHT22;64400;44.762;37.698;2022-10-31T14:07:11;15.02;76.88
75782;DHT22;64400;44.762;37.698;2022-10-31T14:10:03;14.88;77.37
75782;DHT22;64400;44.762;37.698;2022-10-31T14:12:40;14.80;77.87
75782;DHT22;64400;44.762;37.698;2022-10-31T14:17:50;14.69;78.18
75782;DHT22;64400;44.762;37.698;2022-10-31T14:20:21;14.63;78.62
75782;DHT22;64400;44.762;37.698;2022-10-31T14:22:49;14.52;79.23
75782;DHT22;64400;44.762;37.698;2022-10-31T14:25:32;14.44;80.22
75782;DHT22;64400;44.762;37.698;2022-10-31T14:28:05;14.33;80.46
75782;DHT22;64400;44.762;37.698;2022-10-31T14:30:57;14.21;79.35
75782;DHT22;64400;44.762;37.698;2022-10-31T14:33:28;14.08;80.26
75782;DHT22;64400;44.762;37.698;2022-10-31T14:36:10;13.97;79.81
75782;DHT22;64400;44.762;37.698;2022-10-31T14:38:54;13.86;79.78
75782;DHT22;64400;44.762;37.698;2022-10-31T14:55:55;13.35;81.73
75782;DHT22;64400;44.762;37.698;2022-10-31T15:00:59;13.16;80.49
75782;DHT22;64400;44.762;37.698;2022-10-31T15:03:38;13.10;80.71
75782;DHT22;64400;44.762;37.698;2022-10-31T15:06:15;13.02;81.54
75782;DHT22;64400;44.762;37.698;2022-10-31T15:08:49;12.95;81.62
75782;DHT22;64400;44.762;37.698;2022-10-31T15:11:26;12.90;81.69
75782;DHT22;64400;44.762;37.698;2022-10-31T15:13:58;12.81;80.73
75782;DHT22;64400;44.762;37.698;2022-10-31T15:16:35;12.80;81.23
75782;DHT22;64400;44.762;37.698;2022-10-31T15:19:05;12.78;80.93
75782;DHT22;64400;44.762;37.698;2022-10-31T15:21:36;12.75;80.73
75782;DHT22;64400;44.762;37.698;2022-10-31T15:24:12;12.66;82.02
75782;DHT22;64400;44.762;37.698;2022-10-31T15:26:46;12.60;81.65
75782;DHT22;64400;44.762;37.698;2022-10-31T15:29:17;12.59;81.59
75782;DHT22;64400;44.762;37.698;2022-10-31T15:32:00;12.52;82.47
75782;DHT22;64400;44.762;37.698;2022-10-31T15:34:39;12.45;82.43
75782;DHT22;64400;44.762;37.698;2022-10-31T15:37:13;12.38;83.23
75782;DHT22;64400;44.762;37.698;2022-10-31T15:39:43;12.36;83.36
75782;DHT22;64400;44.762;37.698;2022-10-31T15:45:17;12.41;83.55
75782;DHT22;64400;44.762;37.698;2022-10-31T15:52:55;12.37;83.94
75782;DHT22;64400;44.762;37.698;2022-10-31T15:55:29;12.41;84.31
75782;DHT22;64400;44.762;37.698;2022-10-31T15:58:03;12.37;84.21
75782;DHT22;64400;44.762;37.698;2022-10-31T16:00:36;12.41;84.58
75782;DHT22;64400;44.762;37.698;2022-10-31T16:05:44;12.45;85.80
75782;DHT22;64400;44.762;37.698;2022-10-31T16:08:26;12.47;84.52
75782;DHT22;64400;44.762;37.698;2022-10-31T16:10:58;12.48;84.66
75782;DHT22;64400;44.762;37.698;2022-10-31T16:13:33;12.47;84.23
75782;DHT22;64400;44.762;37.698;2022-10-31T16:16:12;12.44;84.72
75782;DHT22;64400;44.762;37.698;2022-10-31T16:19:01;12.35;85.24
75782;DHT22;64400;44.762;37.698;2022-10-31T16:21:35;12.31;84.66
75782;DHT22;64400;44.762;37.698;2022-10-31T16:24:24;12.29;84.74
75782;DHT22;64400;44.762;37.698;2022-10-31T16:27:01;12.23;85.04
75782;DHT22;64400;44.762;37.698;2022-10-31T16:29:39;11.94;85.00
75782;DHT22;64400;44.762;37.698;2022-10-31T16:35:28;11.75;87.54
75782;DHT22;64400;44.762;37.698;2022-10-31T16:37:59;11.51;86.86
75782;DHT22;64400;44.762;37.698;2022-10-31T16:40:27;11.59;88.15
75782;DHT22;64400;44.762;37.698;2022-10-31T16:42:58;11.36;88.35
75782;DHT22;64400;44.762;37.698;2022-10-31T16:45:31;11.40;87.51
75782;DHT22;64400;44.762;37.698;2022-10-31T16:48:05;11.43;88.75
75782;DHT22;64400;44.762;37.698;2022-10-31T16:50:37;11.46;87.78
75782;DHT22;64400;44.762;37.698;2022-10-31T16:53:14;11.46;88.08
75782;DHT22;64400;44.762;37.698;2022-10-31T16:55:52;11.47;87.59
75782;DHT22;64400;44.762;37.698;2022-10-31T16:58:28;11.48;86.32
75782;DHT22;64400;44.762;37.698;2022-10-31T17:00:57;11.55;88.31
75782;DHT22;64400;44.762;37.698;2022-10-31T17:03:26;11.55;86.79
75782;DHT22;64400;44.762;37.698;2022-10-31T17:05:54;11.59;84.99
75782;DHT22;64400;44.762;37.698;2022-10-31T17:08:23;11.61;85.26
75782;DHT22;64400;44.762;37.698;2022-10-31T17:10:54;11.60;85.03
75782;DHT22;64400;44.762;37.698;2022-10-31T17:13:25;11.55;83.53
75782;DHT22;64400;44.762;37.698;2022-10-31T17:15:58;11.55;81.45
75782;DHT22;64400;44.762;37.698;2022-10-31T17:18:27;11.54;79.46
75782;DHT22;64400;44.762;37.698;2022-10-31T17:21:00;11.55;78.74
75782;DHT22;64400;44.762;37.698;2022-10-31T17:23:29;11.56;78.40
75782;DHT22;64400;44.762;37.698;2022-10-31T17:26:02;11.54;78.14
75782;DHT22;64400;44.762;37.698;2022-10-31T17:28:31;11.54;77.82
75782;DHT22;64400;44.762;37.698;2022-10-31T17:31:00;11.52;77.10
75782;DHT22;64400;44.762;37.698;2022-10-31T17:33:30;11.49;77.60
75782;DHT22;64400;44.762;37.698;2022-10-31T17:36:01;11.45;77.06
75782;DHT22;64400;44.762;37.698;2022-10-31T17:38:30;11.43;77.34
75782;DHT22;64400;44.762;37.698;2022-10-31T17:40:58;11.31;76.41
75782;DHT22;64400;44.762;37.698;2022-10-31T17:43:26;11.26;76.01
75782;DHT22;64400;44.762;37.698;2022-10-31T17:45:54;11.24;76.76
75782;DHT22;64400;44.762;37.698;2022-10-31T17:48:28;11.15;76.01
75782;DHT22;64400;44.762;37.698;2022-10-31T17:50:59;11.11;76.31
75782;DHT22;64400;44.762;37.698;2022-10-31T17:53:32;11.04;75.41
75782;DHT22;64400;44.762;37.698;2022-10-31T17:56:04;10.98;76.28
75782;DHT22;64400;44.762;37.698;2022-10-31T17:58:36;10.98;77.08
75782;DHT22;64400;44.762;37.698;2022-10-31T18:01:13;10.96;75.88
75782;DHT22;64400;44.762;37.698;2022-10-31T18:03:41;10.88;75.81
75782;DHT22;64400;44.762;37.698;2022-10-31T18:06:11;10.81;74.57
75782;DHT22;64400;44.762;37.698;2022-10-31T18:08:42;10.80;76.05
75782;DHT22;64400;44.762;37.698;2022-10-31T18:11:18;10.73;73.21
75782;DHT22;64400;44.762;37.698;2022-10-31T18:13:46;10.68;72.17
75782;DHT22;64400;44.762;37.698;2022-10-31T18:16:16;10.66;73.52
75782;DHT22;64400;44.762;37.698;2022-10-31T18:18:54;10.60;72.76
75782;DHT22;64400;44.762;37.698;2022-10-31T18:21:29;10.53;70.83
75782;DHT22;64400;44.762;37.698;2022-10-31T18:23:58;10.53;71.42
75782;DHT22;64400;44.762;37.698;2022-10-31T18:26:28;10.52;71.86
75782;DHT22;64400;44.762;37.698;2022-10-31T18:28:59;10.41;71.22